Time;durP1;ratioP1;P1;durP2;ratioP2;P2;SDS_P1;SDS_P2;PMS_P1;PMS_P2;Temp;Humidity;BMP_temperature;BMP_pressure;BME280_temperature;BME280_humidity;BME280_pressure;Samples;Min_cycle;Max_cycle;Signal;HPM_P1;HPM_P2
2021/10/27 00:00:28;;;;;;;7.25;4.88;;;13.40;99.90;;;;;;5015256;28;20045;-79
2021/10/27 00:02:54;;;;;;;;;;;13.40;99.90;;;;;;5031005;28;20038;-79
2021/10/27 00:05:20;;;;;;;6.75;5.50;;;13.40;99.90;;;;;;5048618;28;19921;-80
2021/10/27 00:07:46;;;;;;;8.18;6.22;;;13.40;99.90;;;;;;5042471;28;20069;-78
2021/10/27 00:10:12;;;;;;;12.45;7.63;;;13.40;99.90;;;;;;5028433;28;20103;-80
2021/10/27 00:12:38;;;;;;;11.77;4.85;;;13.40;99.90;;;;;;5017445;28;20042;-78
2021/10/27 00:15:10;;;;;;;10.27;6.13;;;13.40;99.90;;;;;;5019188;28;20402;-79
2021/10/27 00:17:36;;;;;;;6.60;5.32;;;13.40;99.90;;;;;;5017807;28;20038;-83
2021/10/27 00:20:04;;;;;;;11.48;5.90;;;13.40;99.90;;;;;;5013383;28;20525;-78
2021/10/27 00:22:30;;;;;;;8.70;5.28;;;13.40;99.90;;;;;;5029956;28;20053;-78
2021/10/27 00:24:55;;;;;;;11.05;6.57;;;13.40;99.90;;;;;;5018069;28;20120;-79
2021/10/27 00:27:21;;;;;;;11.43;6.32;;;13.40;99.90;;;;;;4998093;28;20100;-81
2021/10/27 00:29:48;;;;;;;9.93;6.30;;;13.50;99.90;;;;;;5051167;28;20092;-78
2021/10/27 00:32:14;;;;;;;17.33;5.63;;;13.50;99.90;;;;;;5045590;28;20515;-80
2021/10/27 00:34:40;;;;;;;12.05;5.65;;;13.50;99.90;;;;;;5011582;28;20061;-79
2021/10/27 00:37:06;;;;;;;;;;;13.50;99.90;;;;;;4997002;28;20088;-80
2021/10/27 00:39:34;;;;;;;13.82;7.78;;;13.50;99.90;;;;;;5035610;28;19928;-80
2021/10/27 00:42:00;;;;;;;7.90;5.47;;;13.50;99.90;;;;;;5021695;28;20412;-79
2021/10/27 00:44:26;;;;;;;11.23;6.65;;;13.40;99.90;;;;;;5015300;28;20396;-83
2021/10/27 00:47:04;;;;;;;11.13;5.97;;;13.50;99.90;;;;;;5019940;28;20046;-79
2021/10/27 00:49:31;;;;;;;9.35;4.97;;;13.40;99.90;;;;;;5002772;28;20057;-79
2021/10/27 00:51:58;;;;;;;12.30;6.38;;;13.40;99.90;;;;;;5045715;28;20042;-80
2021/10/27 00:54:25;;;;;;;12.00;6.55;;;13.40;99.90;;;;;;5055448;28;20488;-80
2021/10/27 00:56:54;;;;;;;21.20;6.93;;;13.40;99.90;;;;;;5037188;28;20082;-81
2021/10/27 00:59:21;;;;;;;9.93;6.32;;;13.50;99.90;;;;;;5016022;28;20034;-79
2021/10/27 01:01:47;;;;;;;10.07;6.15;;;13.50;99.90;;;;;;5036361;28;20372;-78
2021/10/27 01:04:13;;;;;;;11.65;6.85;;;13.40;99.90;;;;;;5015554;28;20049;-80
2021/10/27 01:06:39;;;;;;;7.28;4.03;;;13.40;99.90;;;;;;5011700;28;20521;-79
2021/10/27 01:09:05;;;;;;;10.00;5.47;;;13.40;99.90;;;;;;5013544;28;20050;-79
2021/10/27 01:11:31;;;;;;;13.00;7.85;;;13.40;99.90;;;;;;5039974;28;20571;-79
2021/10/27 01:13:57;;;;;;;8.88;5.60;;;13.50;99.90;;;;;;5019267;28;20146;-78
2021/10/27 01:16:22;;;;;;;8.15;5.05;;;13.50;99.90;;;;;;5020298;28;20076;-79
2021/10/27 01:18:53;;;;;;;6.43;5.13;;;13.50;99.90;;;;;;5030628;28;20077;-77
2021/10/27 01:21:21;;;;;;;9.40;5.53;;;13.50;99.90;;;;;;5029563;28;20052;-77
2021/10/27 01:23:47;;;;;;;7.82;5.38;;;13.50;99.90;;;;;;5025787;28;20052;-77
2021/10/27 01:26:13;;;;;;;13.55;5.70;;;13.60;99.90;;;;;;5024661;28;20045;-79
2021/10/27 01:28:39;;;;;;;;;;;13.60;99.90;;;;;;5035355;28;20052;-78
2021/10/27 01:31:05;;;;;;;7.57;4.15;;;13.70;99.90;;;;;;5012048;28;19992;-77
2021/10/27 01:33:32;;;;;;;11.57;5.57;;;13.70;99.90;;;;;;5018203;28;20542;-81
2021/10/27 01:35:57;;;;;;;4.28;3.65;;;13.70;99.90;;;;;;5008953;28;20038;-79
2021/10/27 01:38:23;;;;;;;5.13;4.45;;;13.70;99.90;;;;;;5029525;28;20348;-81
2021/10/27 01:40:49;;;;;;;7.80;4.57;;;13.70;99.90;;;;;;5028060;28;20049;-79
2021/10/27 01:43:14;;;;;;;15.68;6.30;;;13.70;99.90;;;;;;5015843;28;20555;-79
2021/10/27 01:45:40;;;;;;;10.95;6.32;;;13.70;99.90;;;;;;5034634;28;20054;-80
2021/10/27 01:48:08;;;;;;;9.15;5.22;;;13.70;99.90;;;;;;5012723;28;20038;-80
2021/10/27 01:50:34;;;;;;;8.38;4.28;;;13.80;99.90;;;;;;5022886;28;20054;-81
2021/10/27 01:53:00;;;;;;;5.97;3.33;;;13.80;99.90;;;;;;5030386;28;20041;-80
2021/10/27 01:55:27;;;;;;;9.88;3.63;;;13.80;99.90;;;;;;5017474;28;20033;-81
2021/10/27 01:57:54;;;;;;;14.50;4.10;;;13.80;99.90;;;;;;5014545;28;20092;-77
2021/10/27 02:00:20;;;;;;;4.70;4.05;;;13.80;99.90;;;;;;5042446;28;20101;-79
2021/10/27 02:02:46;;;;;;;13.95;3.97;;;13.80;99.90;;;;;;5019747;28;20439;-80
2021/10/27 02:05:12;;;;;;;;;;;13.80;99.90;;;;;;5001443;28;20045;-78
2021/10/27 02:07:39;;;;;;;8.32;4.93;;;13.80;99.90;;;;;;5028275;28;19917;-78
2021/10/27 02:10:07;;;;;;;6.63;4.22;;;13.80;99.90;;;;;;5014878;28;20064;-82
2021/10/27 02:12:33;;;;;;;10.50;4.82;;;13.80;99.90;;;;;;5022897;28;20057;-82
2021/10/27 02:15:00;;;;;;;11.88;4.55;;;13.70;99.90;;;;;;5010791;28;20050;-79
2021/10/27 02:17:25;;;;;;;10.10;5.00;;;13.70;99.90;;;;;;5019534;28;20041;-81
2021/10/27 02:19:51;;;;;;;5.75;3.63;;;13.70;99.90;;;;;;5030719;28;20038;-83
2021/10/27 02:22:17;;;;;;;8.45;5.22;;;13.70;99.90;;;;;;5037077;28;20129;-78
2021/10/27 02:24:43;;;;;;;10.20;3.65;;;13.70;99.90;;;;;;4998240;28;20068;-80
2021/10/27 02:27:08;;;;;;;4.10;2.50;;;13.70;99.90;;;;;;5038569;28;20049;-82
2021/10/27 02:29:34;;;;;;;8.68;4.68;;;13.70;99.90;;;;;;5023396;28;20395;-79
2021/10/27 02:32:01;;;;;;;13.15;3.70;;;13.70;99.90;;;;;;5023163;28;20115;-78
2021/10/27 02:34:27;;;;;;;8.65;4.22;;;13.70;99.90;;;;;;4993405;28;20046;-79
2021/10/27 02:36:52;;;;;;;10.07;4.25;;;13.70;99.90;;;;;;5018757;28;20118;-82
2021/10/27 02:39:18;;;;;;;4.47;3.30;;;13.70;99.90;;;;;;5031233;28;20388;-80
2021/10/27 02:41:44;;;;;;;4.88;2.88;;;13.70;99.90;;;;;;5024757;28;20395;-81
2021/10/27 02:44:10;;;;;;;;;;;13.70;99.90;;;;;;5017942;28;20061;-80
2021/10/27 02:46:36;;;;;;;6.78;3.38;;;13.60;99.90;;;;;;5046737;28;19918;-78
2021/10/27 02:49:02;;;;;;;12.05;4.55;;;13.60;99.90;;;;;;4999873;28;20502;-78
2021/10/27 02:51:27;;;;;;;;;;;13.70;99.90;;;;;;5036575;28;20491;-79
2021/10/27 02:53:53;;;;;;;5.07;3.53;;;13.70;99.90;;;;;;5014388;28;19928;-77
2021/10/27 02:56:19;;;;;;;5.28;3.67;;;13.70;99.90;;;;;;5030925;28;20046;-82
2021/10/27 02:58:44;;;;;;;4.78;3.80;;;13.70;99.90;;;;;;4993076;28;20045;-80
2021/10/27 03:01:10;;;;;;;6.40;4.80;;;13.70;99.90;;;;;;5019342;28;20046;-79
2021/10/27 03:03:39;;;;;;;12.77;3.33;;;13.70;99.90;;;;;;5020671;28;20041;-79
2021/10/27 03:06:05;;;;;;;7.05;2.63;;;13.80;99.90;;;;;;5010019;28;20034;-78
2021/10/27 03:08:31;;;;;;;8.85;3.85;;;13.80;99.90;;;;;;5025771;28;20049;-80
2021/10/27 03:10:57;;;;;;;4.57;3.63;;;13.90;99.90;;;;;;5022958;28;20037;-79
2021/10/27 03:13:23;;;;;;;3.15;2.67;;;13.90;99.90;;;;;;5025070;28;20439;-79
2021/10/27 03:15:49;;;;;;;10.27;3.55;;;13.90;99.90;;;;;;5026608;28;20120;-80
2021/10/27 03:18:15;;;;;;;6.72;3.72;;;13.90;99.90;;;;;;5027438;28;20458;-77
2021/10/27 03:20:41;;;;;;;5.30;3.05;;;13.90;99.90;;;;;;5013564;28;20158;-80
2021/10/27 03:23:07;;;;;;;11.20;3.25;;;13.90;99.90;;;;;;5035858;28;20041;-79
2021/10/27 03:25:33;;;;;;;8.52;3.38;;;13.90;99.90;;;;;;5032062;28;20064;-78
2021/10/27 03:27:59;;;;;;;5.85;2.55;;;13.90;99.90;;;;;;5016081;28;20051;-79
2021/10/27 03:30:25;;;;;;;5.38;3.15;;;13.80;99.90;;;;;;5020710;28;20034;-78
2021/10/27 03:32:51;;;;;;;8.35;3.03;;;13.90;99.90;;;;;;5007016;28;20089;-81
2021/10/27 03:35:17;;;;;;;8.70;3.70;;;13.90;99.90;;;;;;5008637;28;20427;-78
2021/10/27 03:37:43;;;;;;;4.78;3.03;;;13.90;99.90;;;;;;5028794;28;20510;-77
2021/10/27 03:40:10;;;;;;;2.05;1.77;;;13.90;99.90;;;;;;5001299;28;20046;-79
2021/10/27 03:42:36;;;;;;;6.82;2.65;;;13.90;99.90;;;;;;5031317;28;20042;-80
2021/10/27 03:45:03;;;;;;;6.35;2.65;;;14.00;99.90;;;;;;5030641;28;20049;-78
2021/10/27 03:47:30;;;;;;;6.13;2.88;;;13.90;99.90;;;;;;5018698;28;20049;-79
2021/10/27 03:49:56;;;;;;;7.85;2.35;;;14.00;99.90;;;;;;5027416;28;20662;-79
2021/10/27 03:52:23;;;;;;;3.47;1.85;;;14.00;99.90;;;;;;5012594;28;20034;-79
2021/10/27 03:54:49;;;;;;;4.78;2.78;;;14.10;99.90;;;;;;5019869;28;20095;-82
2021/10/27 03:57:15;;;;;;;2.30;2.03;;;14.10;99.90;;;;;;5034607;28;20121;-80
2021/10/27 03:59:40;;;;;;;;;;;14.10;99.90;;;;;;5026390;28;20120;-78
2021/10/27 04:02:06;;;;;;;1.67;1.45;;;14.10;99.90;;;;;;5025841;28;19976;-78
2021/10/27 04:04:33;;;;;;;5.55;1.33;;;14.10;99.90;;;;;;5020401;28;20042;-80
2021/10/27 04:06:59;;;;;;;1.92;1.45;;;14.10;99.90;;;;;;5039771;28;20597;-79
2021/10/27 04:09:24;;;;;;;4.70;1.77;;;14.10;99.90;;;;;;5014818;28;20041;-78
2021/10/27 04:11:50;;;;;;;3.25;2.15;;;14.10;99.90;;;;;;5026351;28;20041;-78
2021/10/27 04:14:16;;;;;;;3.20;1.90;;;14.10;99.90;;;;;;4999568;28;20174;-83
2021/10/27 04:16:41;;;;;;;1.73;1.55;;;14.10;99.90;;;;;;5025137;28;20037;-80
2021/10/27 04:19:07;;;;;;;3.38;1.27;;;14.20;99.90;;;;;;5037007;28;20120;-80
2021/10/27 04:21:33;;;;;;;1.92;1.55;;;14.10;99.90;;;;;;5016768;28;20042;-79
2021/10/27 04:23:59;;;;;;;4.13;1.90;;;14.10;99.90;;;;;;5031825;28;20553;-82
2021/10/27 04:26:26;;;;;;;7.30;1.58;;;14.10;99.90;;;;;;5038021;28;20037;-78
2021/10/27 04:28:52;;;;;;;2.92;1.52;;;14.10;99.90;;;;;;5019432;28;20037;-77
2021/10/27 04:31:20;;;;;;;2.38;1.45;;;14.00;99.90;;;;;;5031204;28;20038;-79
2021/10/27 04:33:46;;;;;;;3.38;1.25;;;14.00;99.90;;;;;;5024543;28;20058;-79
2021/10/27 04:36:11;;;;;;;1.88;1.48;;;14.00;99.90;;;;;;5052458;28;20040;-81
2021/10/27 04:38:37;;;;;;;13.07;1.90;;;13.90;99.90;;;;;;5048527;28;20042;-85
2021/10/27 04:41:03;;;;;;;1.92;1.52;;;14.00;99.90;;;;;;5020950;28;20053;-78
2021/10/27 04:43:28;;;;;;;7.28;2.75;;;13.90;99.90;;;;;;5032995;28;20128;-77
2021/10/27 04:45:55;;;;;;;1.00;0.80;;;13.90;99.90;;;;;;5006867;28;20083;-82
2021/10/27 04:48:20;;;;;;;;;;;13.90;99.90;;;;;;5007779;28;20120;-78
2021/10/27 04:50:46;;;;;;;5.03;1.70;;;13.90;99.90;;;;;;4997597;28;20027;-83
2021/10/27 04:53:15;;;;;;;;;;;13.90;99.90;;;;;;5040471;28;20042;-81
2021/10/27 04:55:42;;;;;;;4.05;1.77;;;14.00;99.90;;;;;;5002155;28;19960;-81
2021/10/27 04:58:08;;;;;;;6.47;1.55;;;13.90;99.90;;;;;;5042645;28;20043;-82
2021/10/27 05:00:33;;;;;;;8.55;1.58;;;14.00;99.90;;;;;;5039892;28;20125;-80
2021/10/27 05:02:59;;;;;;;;;;;14.00;99.90;;;;;;5032596;28;20033;-79
2021/10/27 05:05:27;;;;;;;1.20;0.80;;;14.00;99.90;;;;;;5023802;28;19924;-82
2021/10/27 05:07:53;;;;;;;1.83;1.63;;;14.00;99.90;;;;;;5026773;28;20506;-76
2021/10/27 05:10:19;;;;;;;1.55;1.33;;;14.00;99.90;;;;;;5025162;28;20045;-76
2021/10/27 05:12:44;;;;;;;1.00;0.98;;;14.00;99.90;;;;;;5008259;28;20056;-76
2021/10/27 05:15:10;;;;;;;2.47;1.67;;;14.00;99.90;;;;;;4982452;28;20065;-80
2021/10/27 05:17:36;;;;;;;2.92;1.42;;;14.10;99.90;;;;;;5050071;28;20053;-77
2021/10/27 05:20:02;;;;;;;2.25;1.55;;;14.10;99.90;;;;;;5034472;28;20506;-79
2021/10/27 05:22:28;;;;;;;;;;;14.00;99.90;;;;;;5018937;28;20483;-80
2021/10/27 05:24:54;;;;;;;2.70;1.67;;;14.00;99.90;;;;;;5051981;28;20010;-81
2021/10/27 05:27:20;;;;;;;1.90;1.58;;;14.00;99.90;;;;;;5025054;28;20058;-78
2021/10/27 05:29:46;;;;;;;2.90;1.80;;;14.00;99.90;;;;;;5019728;28;20046;-75
2021/10/27 05:32:12;;;;;;;7.80;1.83;;;14.00;99.90;;;;;;5019414;28;20061;-78
2021/10/27 05:34:39;;;;;;;10.35;1.75;;;14.00;99.90;;;;;;5033929;28;20132;-78
2021/10/27 05:37:05;;;;;;;3.70;1.95;;;14.00;99.90;;;;;;5031042;28;20585;-78
2021/10/27 05:39:32;;;;;;;3.28;1.98;;;14.00;99.90;;;;;;5006679;28;20169;-80
2021/10/27 05:41:58;;;;;;;2.55;1.70;;;14.00;99.90;;;;;;5038522;28;20056;-79
2021/10/27 05:44:24;;;;;;;2.15;1.33;;;14.00;99.90;;;;;;5015117;28;20038;-79
2021/10/27 05:46:51;;;;;;;3.55;1.55;;;14.00;99.90;;;;;;5021668;28;20054;-78
2021/10/27 05:49:36;;;;;;;3.83;1.50;;;14.00;99.90;;;;;;5034769;28;20091;-80
2021/10/27 05:57:15;;;;;;;3.75;1.73;;;14.10;99.90;;;;;;5022133;28;20092;-77
2021/10/27 05:59:41;;;;;;;3.70;1.58;;;14.00;99.90;;;;;;5014615;28;20510;-76
2021/10/27 06:02:06;;;;;;;;;;;14.00;99.90;;;;;;4984502;28;20038;-77
2021/10/27 06:04:35;;;;;;;2.13;1.33;;;14.00;99.90;;;;;;5018255;28;19918;-79
2021/10/27 06:07:00;;;;;;;4.75;1.75;;;14.00;99.90;;;;;;5028497;28;20041;-77
2021/10/27 06:09:26;;;;;;;6.80;2.92;;;14.00;99.90;;;;;;5018391;28;20048;-79
2021/10/27 06:11:52;;;;;;;7.15;2.10;;;13.90;99.90;;;;;;5029110;28;20034;-77
2021/10/27 06:14:18;;;;;;;4.10;2.28;;;13.90;99.90;;;;;;4994729;28;20052;-78
2021/10/27 06:16:44;;;;;;;4.07;2.03;;;13.90;99.90;;;;;;5022088;28;20038;-82
2021/10/27 06:19:10;;;;;;;2.15;1.77;;;13.90;99.90;;;;;;5052259;28;20041;-83
2021/10/27 06:21:38;;;;;;;4.70;2.67;;;13.90;99.90;;;;;;5026893;28;20045;-78
2021/10/27 06:24:05;;;;;;;7.65;2.55;;;13.90;99.90;;;;;;5025234;28;20112;-80
2021/10/27 06:26:32;;;;;;;2.28;1.20;;;13.90;99.90;;;;;;5019715;28;20049;-79
2021/10/27 06:29:19;;;;;;;2.88;1.30;;;14.10;99.90;;;;;;5022542;28;20077;-80
2021/10/27 06:31:50;;;;;;;3.45;2.13;;;13.90;99.90;;;;;;5021647;28;20075;-78
2021/10/27 06:34:35;;;;;;;8.43;2.65;;;13.90;99.90;;;;;;5014892;28;20092;-79
2021/10/27 06:47:58;;;;;;;5.47;2.10;;;14.00;99.90;;;;;;5020972;28;20103;-78
2021/10/27 06:50:24;;;;;;;9.48;3.55;;;14.10;99.90;;;;;;5048496;28;20041;-79
2021/10/27 06:52:50;;;;;;;;;;;14.10;99.90;;;;;;5022921;28;20049;-80
2021/10/27 06:55:16;;;;;;;2.72;2.10;;;14.10;99.90;;;;;;5010222;28;19960;-81
2021/10/27 06:57:43;;;;;;;6.57;2.90;;;14.00;99.90;;;;;;5020497;28;20042;-77
2021/10/27 07:00:18;;;;;;;6.65;2.33;;;14.10;99.90;;;;;;5036936;28;20092;-78
2021/10/27 07:04:00;;;;;;;4.43;2.47;;;14.00;99.90;;;;;;5036524;28;20040;-78
2021/10/27 07:05:52;;;;;;;9.80;2.55;;;14.10;99.90;;;;;;5013191;28;20135;-80
2021/10/27 07:16:32;;;;;;;8.90;2.38;;;14.20;99.90;;;;;;5051552;28;20042;-81
2021/10/27 07:18:57;;;;;;;2.42;1.75;;;14.20;99.90;;;;;;5011175;28;20044;-78
2021/10/27 07:21:23;;;;;;;9.02;3.10;;;14.20;99.90;;;;;;5034086;28;20774;-81
2021/10/27 07:23:50;;;;;;;4.05;2.90;;;14.30;99.90;;;;;;5040443;28;20077;-80
2021/10/27 07:26:18;;;;;;;5.80;2.92;;;14.30;99.90;;;;;;5048782;28;20038;-82
2021/10/27 07:28:47;;;;;;;12.82;2.78;;;14.30;99.90;;;;;;5022034;28;20037;-80
2021/10/27 07:31:15;;;;;;;5.32;2.95;;;14.30;99.90;;;;;;5027584;28;20034;-81
2021/10/27 07:33:42;;;;;;;4.78;2.65;;;14.30;99.90;;;;;;4999060;28;20076;-77
2021/10/27 07:41:44;;;;;;;9.77;3.35;;;14.40;99.90;;;;;;5026890;28;20077;-80
2021/10/27 07:44:15;;;;;;;5.13;2.83;;;14.50;99.90;;;;;;5018333;28;20073;-78
2021/10/27 07:46:43;;;;;;;8.60;2.67;;;14.50;99.90;;;;;;5022064;28;20120;-78
2021/10/27 07:49:09;;;;;;;3.15;1.92;;;14.40;99.90;;;;;;5039245;28;20076;-78
2021/10/27 07:51:41;;;;;;;8.00;3.90;;;14.40;99.90;;;;;;5020411;28;20754;-80
2021/10/27 07:54:07;;;;;;;12.45;3.45;;;14.50;99.90;;;;;;5018945;28;20038;-80
2021/10/27 07:56:33;;;;;;;4.90;3.78;;;14.50;99.90;;;;;;5025973;28;20049;-79
2021/10/27 07:59:01;;;;;;;5.20;3.40;;;14.60;99.90;;;;;;5033805;28;20112;-82
2021/10/27 08:01:28;;;;;;;8.35;4.15;;;14.60;99.90;;;;;;5019605;28;20043;-75
2021/10/27 08:03:55;;;;;;;2.78;2.33;;;14.50;99.90;;;;;;5010035;28;20081;-80
2021/10/27 08:06:21;;;;;;;4.60;3.28;;;14.60;99.90;;;;;;5024759;28;20062;-76
2021/10/27 08:08:47;;;;;;;5.20;3.58;;;14.50;99.90;;;;;;5024466;28;20052;-78
2021/10/27 08:11:14;;;;;;;9.00;3.05;;;14.50;99.90;;;;;;5030040;28;20121;-77
2021/10/27 08:13:40;;;;;;;4.68;3.65;;;14.50;99.90;;;;;;5021910;28;20041;-79
2021/10/27 08:16:06;;;;;;;5.97;3.55;;;14.50;99.90;;;;;;5028429;28;20056;-80
2021/10/27 08:18:31;;;;;;;;;;;14.50;99.90;;;;;;5015660;28;20096;-77
2021/10/27 08:20:58;;;;;;;6.10;4.28;;;14.50;99.90;;;;;;5022976;28;19979;-82
2021/10/27 08:23:28;;;;;;;6.63;3.50;;;14.50;99.90;;;;;;5025957;28;20042;-79
2021/10/27 08:25:57;;;;;;;4.65;2.85;;;14.50;99.90;;;;;;5027870;28;20565;-77
2021/10/27 08:28:37;;;;;;;6.18;3.70;;;14.50;99.90;;;;;;5020497;28;20049;-79
2021/10/27 08:36:02;;;;;;;4.25;3.53;;;14.40;99.90;;;;;;5009766;28;20045;-80
2021/10/27 08:38:28;;;;;;;4.43;3.05;;;14.40;99.90;;;;;;5038782;28;20129;-80
2021/10/27 08:40:55;;;;;;;6.38;4.40;;;14.30;99.90;;;;;;5029040;28;20087;-79
2021/10/27 08:43:22;;;;;;;5.90;4.03;;;14.30;99.90;;;;;;5022154;28;20100;-81
2021/10/27 08:45:48;;;;;;;6.28;3.45;;;14.30;99.90;;;;;;5040566;28;20081;-82
2021/10/27 08:48:15;;;;;;;6.57;4.47;;;14.20;99.90;;;;;;5017671;28;20064;-81
2021/10/27 08:50:42;;;;;;;7.28;5.03;;;14.20;99.90;;;;;;5010400;28;20680;-79
2021/10/27 08:53:08;;;;;;;6.65;4.15;;;14.20;99.90;;;;;;4994166;28;20124;-76
2021/10/27 08:55:36;;;;;;;8.65;6.10;;;14.20;99.90;;;;;;5007670;28;20144;-78
2021/10/27 08:58:03;;;;;;;7.90;4.32;;;14.30;99.90;;;;;;5026929;28;20054;-76
2021/10/27 09:00:49;;;;;;;4.68;4.00;;;14.40;99.90;;;;;;5020166;28;20046;-79
2021/10/27 09:06:35;;;;;;;6.20;3.63;;;14.50;99.90;;;;;;5033293;28;20079;-78
2021/10/27 09:09:25;;;;;;;4.72;3.47;;;14.60;99.90;;;;;;5017015;28;20475;-76
2021/10/27 09:15:19;;;;;;;7.55;4.25;;;14.70;99.90;;;;;;5028064;28;20081;-76
2021/10/27 10:04:30;;;;;;;5.65;3.72;;;14.80;99.90;;;;;;4965892;28;20058;-84
2021/10/27 10:07:03;;;;;;;6.43;2.67;;;14.80;99.90;;;;;;5003116;28;20089;-83
2021/10/27 10:09:29;;;;;;;7.68;2.75;;;14.90;99.90;;;;;;5008749;28;20095;-82
2021/10/27 10:12:00;;;;;;;;;;;15.00;99.90;;;;;;5033213;28;20070;-80
2021/10/27 10:14:26;;;;;;;8.65;4.00;;;15.00;99.90;;;;;;5056872;28;19940;-84
2021/10/27 10:16:57;;;;;;;3.50;2.20;;;15.10;99.90;;;;;;5012541;28;20042;-82
2021/10/27 10:19:35;;;;;;;4.22;2.58;;;15.20;99.90;;;;;;5021267;28;21646;-81
2021/10/27 10:22:01;;;;;;;4.43;2.20;;;15.40;99.90;;;;;;5061007;28;20049;-80
2021/10/27 10:24:36;;;;;;;7.72;2.47;;;15.50;99.90;;;;;;5023876;28;20045;-82
2021/10/27 10:27:11;;;;;;;1.92;1.42;;;15.60;99.90;;;;;;5017852;28;20045;-82
2021/10/27 10:32:25;;;;;;;3.72;2.47;;;15.80;99.90;;;;;;5028055;28;20084;-81
2021/10/27 10:35:00;;;;;;;3.90;2.05;;;15.80;99.90;;;;;;5019253;28;20053;-78
2021/10/27 10:37:35;;;;;;;2.88;2.22;;;15.90;99.90;;;;;;5044516;28;20071;-80
2021/10/27 10:40:27;;;;;;;6.40;3.03;;;15.90;99.90;;;;;;5029399;28;20115;-83
2021/10/27 10:43:03;;;;;;;1.55;1.45;;;15.90;99.90;;;;;;5025758;28;20056;-80
2021/10/27 10:57:28;;;;;;;3.08;1.80;;;15.90;99.90;;;;;;5026368;28;20041;-79
2021/10/27 11:41:18;;;;;;;1.60;1.10;;;15.90;99.90;;;;;;4993063;28;20427;-81
2021/10/27 11:43:56;;;;;;;3.47;1.98;;;15.90;99.90;;;;;;5019161;28;20038;-81
2021/10/27 11:46:40;;;;;;;2.80;1.77;;;15.90;99.90;;;;;;5020507;28;20038;-81
2021/10/27 11:49:09;;;;;;;6.88;1.92;;;15.90;99.90;;;;;;5031465;28;20112;-78
2021/10/27 11:51:35;;;;;;;2.53;1.85;;;15.90;99.90;;;;;;5033769;28;20077;-80
2021/10/27 11:54:09;;;;;;;3.40;1.73;;;15.80;99.90;;;;;;5018912;28;20053;-82
2021/10/27 11:56:35;;;;;;;1.92;1.17;;;15.80;99.90;;;;;;5021302;28;20041;-81
2021/10/27 11:59:01;;;;;;;2.75;1.42;;;15.80;99.90;;;;;;5024853;28;20042;-78
2021/10/27 12:01:37;;;;;;;5.47;1.90;;;15.70;99.90;;;;;;5026976;28;20121;-78
2021/10/27 12:04:05;;;;;;;2.45;1.33;;;15.80;99.90;;;;;;5026616;28;20132;-80
2021/10/27 12:17:41;;;;;;;1.27;0.93;;;15.90;99.90;;;;;;5027863;28;20084;-80
2021/10/27 12:20:04;;;;;;;5.60;2.10;;;15.90;99.90;;;;;;5024339;28;20132;-78
2021/10/27 12:22:32;;;;;;;2.60;1.58;;;16.00;99.90;;;;;;5024165;28;20045;-78
2021/10/27 12:25:07;;;;;;;4.70;1.40;;;15.90;99.90;;;;;;5024714;28;20045;-80
2021/10/27 12:27:37;;;;;;;0.90;0.85;;;15.90;99.90;;;;;;5026146;28;20065;-77
2021/10/27 12:30:09;;;;;;;1.33;1.05;;;15.90;99.90;;;;;;5057154;28;20052;-78
2021/10/27 12:32:52;;;;;;;3.88;1.35;;;15.90;99.90;;;;;;5024308;28;20065;-77
2021/10/27 12:35:18;;;;;;;2.25;1.52;;;15.90;99.90;;;;;;5045877;28;20065;-82
2021/10/27 12:37:55;;;;;;;;;;;15.90;99.90;;;;;;5006557;28;20120;-77
2021/10/27 12:40:28;;;;;;;6.00;1.45;;;15.90;99.90;;;;;;5027223;28;19932;-77
2021/10/27 12:43:09;;;;;;;3.67;1.60;;;15.90;99.90;;;;;;5024812;28;20132;-79
2021/10/27 12:45:46;;;;;;;3.72;1.20;;;15.80;99.90;;;;;;5034145;28;20057;-81
2021/10/27 12:48:21;;;;;;;1.13;1.02;;;15.80;99.90;;;;;;5020251;28;20438;-80
2021/10/27 12:51:09;;;;;;;1.38;1.15;;;15.70;99.90;;;;;;5018800;28;20077;-81
2021/10/27 12:53:43;;;;;;;1.13;1.00;;;15.70;99.90;;;;;;5023855;28;20065;-78
2021/10/27 12:56:12;;;;;;;2.33;1.70;;;15.70;99.90;;;;;;5056825;28;20044;-81
2021/10/27 12:58:44;;;;;;;1.45;1.10;;;15.70;99.90;;;;;;5021896;28;20037;-79
2021/10/27 13:06:50;;;;;;;2.30;1.45;;;15.70;99.90;;;;;;5023992;28;20052;-80
2021/10/27 13:09:37;;;;;;;7.68;1.13;;;15.70;99.90;;;;;;5019768;28;20076;-81
2021/10/27 13:12:20;;;;;;;;;;;15.70;99.90;;;;;;5026445;28;20042;-80
2021/10/27 13:17:38;;;;;;;1.20;1.05;;;15.70;99.90;;;;;;5008989;28;20050;-82
2021/10/27 13:20:22;;;;;;;1.10;1.00;;;15.70;99.90;;;;;;5027170;28;20390;-81
2021/10/27 13:31:22;;;;;;;1.42;1.08;;;15.50;99.90;;;;;;4977829;28;20133;-82
2021/10/27 13:33:48;;;;;;;2.90;1.35;;;15.40;99.90;;;;;;5031311;28;20089;-80
2021/10/27 13:36:16;;;;;;;;;;;15.40;99.90;;;;;;5044549;28;20042;-78
2021/10/27 13:38:41;;;;;;;4.40;1.77;;;15.40;99.90;;;;;;5018742;28;19921;-80
2021/10/27 13:41:09;;;;;;;2.13;1.83;;;15.30;99.90;;;;;;5015076;28;20033;-79
2021/10/27 13:49:05;;;;;;;3.05;1.70;;;15.20;99.90;;;;;;5025095;28;20526;-84
2021/10/27 14:07:44;;;;;;;2.10;1.45;;;15.00;99.90;;;;;;5021652;28;20045;-79
2021/10/27 14:10:17;;;;;;;1.50;1.02;;;15.10;99.90;;;;;;5021255;28;20106;-76
2021/10/27 14:12:49;;;;;;;3.58;1.45;;;15.10;99.90;;;;;;5031239;28;20050;-73
2021/10/27 14:15:48;;;;;;;2.42;1.73;;;15.20;99.90;;;;;;4991300;28;20073;-80
2021/10/27 15:22:58;;;;;;;1.50;1.35;;;14.90;99.90;;;;;;5027703;28;20049;-79
2021/10/27 15:35:58;;;;;;;1.88;1.42;;;14.70;99.90;;;;;;5024505;28;20134;-82
2021/10/27 15:41:22;;;;;;;2.47;1.60;;;14.70;99.90;;;;;;5031133;28;20081;-81
2021/10/27 15:43:56;;;;;;;4.93;1.55;;;14.70;99.90;;;;;;5023302;28;20045;-82
2021/10/27 15:52:07;;;;;;;;;;;14.70;99.90;;;;;;5021062;28;20050;-83
2021/10/27 15:54:34;;;;;;;1.50;1.40;;;14.60;99.90;;;;;;5045349;28;19925;-86
2021/10/27 15:57:00;;;;;;;3.25;1.40;;;14.60;99.90;;;;;;4995162;28;20384;-84
2021/10/27 15:59:27;;;;;;;1.80;1.10;;;14.60;99.90;;;;;;5041348;28;20039;-82
2021/10/27 16:01:52;;;;;;;1.52;1.40;;;14.60;99.90;;;;;;5039263;28;20064;-82
2021/10/27 16:04:19;;;;;;;3.33;1.73;;;14.60;99.90;;;;;;5026408;28;20041;-82
2021/10/27 16:06:53;;;;;;;4.10;2.00;;;14.60;99.90;;;;;;5032242;28;20506;-82
2021/10/27 16:09:22;;;;;;;1.90;1.30;;;14.60;99.90;;;;;;5031797;28;20046;-80
2021/10/27 16:11:48;;;;;;;3.03;1.90;;;14.60;99.90;;;;;;5029852;28;20042;-79
2021/10/27 16:14:14;;;;;;;2.50;1.80;;;14.60;99.90;;;;;;5027632;28;20442;-81
2021/10/27 16:16:40;;;;;;;1.98;1.77;;;14.60;99.90;;;;;;5028743;28;20103;-83
2021/10/27 16:19:06;;;;;;;1.90;1.50;;;14.60;99.90;;;;;;5039524;28;20528;-84
2021/10/27 16:21:32;;;;;;;2.13;1.45;;;14.50;99.90;;;;;;5045196;28;20073;-82
2021/10/27 16:23:58;;;;;;;4.50;2.78;;;14.50;99.90;;;;;;5023931;28;20049;-83
2021/10/27 16:26:25;;;;;;;3.78;2.03;;;14.50;99.90;;;;;;5031677;28;20474;-84
2021/10/27 16:28:51;;;;;;;1.90;1.70;;;14.50;99.90;;;;;;5037232;28;20042;-84
2021/10/27 16:31:17;;;;;;;;;;;14.40;99.90;;;;;;5047456;28;20124;-82
2021/10/27 16:33:45;;;;;;;1.88;1.40;;;14.40;99.90;;;;;;5028014;28;20056;-82
2021/10/27 16:36:12;;;;;;;3.50;1.92;;;14.40;99.90;;;;;;5043130;28;20046;-83
2021/10/27 16:38:39;;;;;;;1.45;1.20;;;14.40;99.90;;;;;;5023997;28;20042;-80
2021/10/27 16:41:04;;;;;;;2.53;1.60;;;14.40;99.90;;;;;;5027660;28;20480;-84
2021/10/27 16:43:30;;;;;;;9.80;1.50;;;14.40;99.90;;;;;;5030266;28;20131;-86
2021/10/27 16:45:56;;;;;;;3.25;1.67;;;14.40;99.90;;;;;;5025217;28;20488;-86
2021/10/27 16:48:23;;;;;;;4.28;2.00;;;14.30;99.90;;;;;;5030300;28;20033;-82
2021/10/27 16:50:51;;;;;;;2.80;1.77;;;14.30;99.90;;;;;;5023955;28;20522;-81
2021/10/27 16:53:20;;;;;;;7.35;1.83;;;14.30;99.90;;;;;;5038085;28;20060;-81
2021/10/27 16:55:46;;;;;;;2.33;1.38;;;14.30;99.90;;;;;;5033472;28;20049;-79
2021/10/27 16:58:14;;;;;;;4.90;2.28;;;14.30;99.90;;;;;;5010036;28;20444;-82
2021/10/27 17:00:40;;;;;;;3.22;1.65;;;14.30;99.90;;;;;;5000273;28;20094;-80
2021/10/27 17:03:06;;;;;;;2.30;2.03;;;14.30;99.90;;;;;;5016368;28;20395;-83
2021/10/27 17:05:32;;;;;;;2.00;1.58;;;14.30;99.90;;;;;;5029446;28;20108;-80
2021/10/27 17:07:57;;;;;;;2.35;1.80;;;14.20;99.90;;;;;;5042487;28;20125;-81
2021/10/27 17:10:24;;;;;;;3.15;2.30;;;14.30;99.90;;;;;;5052823;28;20060;-84
2021/10/27 17:12:50;;;;;;;9.30;2.75;;;14.30;99.90;;;;;;5028766;28;20117;-82
2021/10/27 17:15:16;;;;;;;1.83;1.65;;;14.30;99.90;;;;;;5005024;28;20128;-82
2021/10/27 17:17:42;;;;;;;;;;;14.30;99.90;;;;;;5019268;28;20038;-82
2021/10/27 17:20:09;;;;;;;6.97;2.25;;;14.30;99.90;;;;;;5050484;28;19917;-84
2021/10/27 17:22:39;;;;;;;5.20;2.08;;;14.30;99.90;;;;;;5028474;28;20063;-82
2021/10/27 17:25:06;;;;;;;2.10;1.63;;;14.30;99.90;;;;;;5028956;28;20053;-81
2021/10/27 17:27:36;;;;;;;4.38;2.80;;;14.30;99.90;;;;;;5020351;28;20053;-82
2021/10/27 17:30:02;;;;;;;3.22;2.15;;;14.30;99.90;;;;;;5016949;28;20041;-82
2021/10/27 17:32:28;;;;;;;2.65;1.65;;;14.20;99.90;;;;;;5017509;28;20192;-77